Dobrota — J8UW4 — position and weather

sailwx.info

Track history (hours):
 
Tides and Currents Weather Stations Pressure Air Temp Water Temp Dewpoint Dewpoint Depression Visibility Wind Speed Wind Dir Waves Ship Positions

Dobrota

Last reported at 2015-Mar-22 21:09 UTC. Time now 2015-Mar-29 09:26 UTC.
Position N 41°23' E 029°15'.

Length 185 m; draft 5.7 m.

Type: Cargo ship. MMSI: 376409000.

Date/timePositionNaut miles runAvg speedWind from/ knotsBaromVisibWave heightAir tempDewpointWater temp
2015-Mar-22 21:09N 41°23' E 029°15'812.9
2015-Mar-22 20:32N 41°16' E 029°11'19 9.6
2015-Mar-22 18:33N 40°59' E 028°60'10 9.9
2015-Mar-22 17:33N 40°50' E 028°54'2 1.8
2015-Mar-22 16:33N 40°48' E 028°54'0 0.3
2015-Mar-22 15:31N 40°48' E 028°55'0 0.3
2015-Mar-22 14:33N 40°49' E 028°55'0 0.3
2015-Mar-22 13:31N 40°49' E 028°55'0 0.2
2015-Mar-22 12:33N 40°49' E 028°55'0 0.2
2015-Mar-22 11:30N 40°49' E 028°55'0 0.1
2015-Mar-22 10:32N 40°49' E 028°55'0 0.2
2015-Mar-22 09:33N 40°49' E 028°55'1 0.9
2015-Mar-22 08:33N 40°50' E 028°54'1 0.8
2015-Mar-22 07:33N 40°50' E 028°53'1 1.2
2015-Mar-22 06:33N 40°49' E 028°52'6 5.8
2015-Mar-22 05:32N 40°49' E 028°44'1413.2
2015-Mar-22 04:30N 40°48' E 028°26'  
Track history (hours):
 
Tides and Currents Weather Stations Pressure Air Temp Water Temp Dewpoint Dewpoint Depression Visibility Wind Speed Wind Dir Waves Ship Positions

Dobrota

Last reported at 2015-Mar-22 21:09 UTC. Time now 2015-Mar-29 09:26 UTC.
Position N 41°23' E 029°15'.

Length 185 m; draft 5.7 m.

Type: Cargo ship. MMSI: 376409000.

Date/timePositionNaut miles runAvg speedWind from/ knotsBaromVisibWave heightAir tempDewpointWater temp
2015-Mar-22 21:09N 41°23' E 029°15'812.9
2015-Mar-22 20:32N 41°16' E 029°11'19 9.6
2015-Mar-22 18:33N 40°59' E 028°60'10 9.9
2015-Mar-22 17:33N 40°50' E 028°54'2 1.8
2015-Mar-22 16:33N 40°48' E 028°54'0 0.3
2015-Mar-22 15:31N 40°48' E 028°55'0 0.3
2015-Mar-22 14:33N 40°49' E 028°55'0 0.3
2015-Mar-22 13:31N 40°49' E 028°55'0 0.2
2015-Mar-22 12:33N 40°49' E 028°55'0 0.2
2015-Mar-22 11:30N 40°49' E 028°55'0 0.1
2015-Mar-22 10:32N 40°49' E 028°55'0 0.2
2015-Mar-22 09:33N 40°49' E 028°55'1 0.9
2015-Mar-22 08:33N 40°50' E 028°54'1 0.8
2015-Mar-22 07:33N 40°50' E 028°53'1 1.2
2015-Mar-22 06:33N 40°49' E 028°52'6 5.8
2015-Mar-22 05:32N 40°49' E 028°44'1413.2
2015-Mar-22 04:30N 40°48' E 028°26'  

Dump ship's entire track history